LIRA/CIA METAR and TAF weather

Enter ICAO airport designator
Station Type Date Time Source
LIRA METAR 2019/08/19 07:20 UTC NOAA

LIRA 190720Z VRB03KT CAVOK 26/15 Q1016


Station Type Date Time Source
LIRA Decoded METAR 2019/08/19 07:20 UTC NOAA

Station name not available
Aug 19, 2019 - 03:20 AM EDT / 2019.08.19 0720 UTC
Wind: Variable at 3 MPH (3 KT):0
Visibility: greater than 7 mile(s):0
Temperature: 78 F (26 C)
Dew Point: 59 F (15 C)
Relative Humidity: 50%
Pressure (altimeter): 30.00 in. Hg (1016 hPa)
ob: LIRA 190720Z VRB03KT CAVOK 26/15 Q1016
cycle: 7

Station Type Date Time Source
LIRA TAF 2019/08/19 06:21 UTC NOAA

TAF LIRA 190500Z 1906/2006 VRB05KT CAVOK
BECMG 1910/1912 24010KT
BECMG 1917/1919 VRB05KT

Example: see airport list